Time;durP1;ratioP1;P1;durP2;ratioP2;P2;SDS_P1;SDS_P2;PMS_P1;PMS_P2;Temp;Humidity;BMP_temperature;BMP_pressure;BME280_temperature;BME280_humidity;BME280_pressure;Samples;Min_cycle;Max_cycle;Signal;HPM_P1;HPM_P2
2023/02/18 00:02:17;;;;;;;21.67;4.17;;;;;;;6.75;100.00;101664.50;4990753;28;20211;-65
2023/02/18 00:04:43;;;;;;;20.93;3.67;;;;;;;6.74;100.00;101673.84;4992006;28;20207;-69
2023/02/18 00:07:08;;;;;;;23.60;4.43;;;;;;;6.76;100.00;101674.75;4988973;28;20307;-68
2023/02/18 00:09:34;;;;;;;25.17;4.03;;;;;;;6.75;100.00;101670.47;4997907;28;20211;-68
2023/02/18 00:11:59;;;;;;;19.80;4.07;;;;;;;6.76;100.00;101671.34;4991206;28;20202;-67
2023/02/18 00:14:25;;;;;;;25.30;4.47;;;;;;;6.77;100.00;101668.00;4988263;28;20212;-69
2023/02/18 00:16:50;;;;;;;19.80;3.40;;;;;;;6.79;100.00;101674.03;4997505;28;20664;-69
2023/02/18 00:19:18;;;;;;;18.10;3.53;;;;;;;6.79;100.00;101672.38;4988933;28;22054;-69
2023/02/18 00:21:44;;;;;;;17.23;3.50;;;;;;;6.80;100.00;101670.69;4986902;28;20212;-69
2023/02/18 00:24:14;;;;;;;16.87;3.40;;;;;;;6.77;100.00;101671.41;4994554;28;20241;-70
2023/02/18 00:26:40;;;;;;;24.00;4.13;;;;;;;6.76;100.00;101667.13;4995003;28;20668;-69
2023/02/18 00:29:05;;;;;;;19.90;3.37;;;;;;;6.80;100.00;101671.56;4986911;28;20676;-68
2023/02/18 00:31:34;;;;;;;18.33;3.93;;;;;;;6.81;100.00;101675.00;4991876;28;20247;-68
2023/02/18 00:34:00;;;;;;;21.90;3.83;;;;;;;6.83;100.00;101681.03;4990063;28;20200;-69
2023/02/18 00:36:27;;;;;;;17.10;2.90;;;;;;;6.83;100.00;101679.34;4983167;28;20188;-68
2023/02/18 00:38:55;;;;;;;21.53;3.57;;;;;;;6.83;100.00;101687.00;4997781;28;20226;-69
2023/02/18 00:41:22;;;;;;;21.70;3.70;;;;;;;6.80;100.00;101685.94;4988986;28;20220;-68
2023/02/18 00:43:48;;;;;;;20.07;3.47;;;;;;;6.78;100.00;101680.78;4987909;28;20728;-69
2023/02/18 00:46:14;;;;;;;18.33;3.27;;;;;;;6.80;100.00;101688.50;4992863;28;20219;-65
2023/02/18 00:48:39;;;;;;;17.80;3.13;;;;;;;6.80;100.00;101684.28;4997749;28;20198;-67
2023/02/18 00:51:06;;;;;;;17.97;3.43;;;;;;;6.74;100.00;101686.56;4990862;28;20208;-69
2023/02/18 00:53:32;;;;;;;17.47;2.90;;;;;;;6.74;100.00;101684.00;4992334;28;20196;-68
2023/02/18 00:55:58;;;;;;;20.40;2.87;;;;;;;6.74;100.00;101683.13;4989708;28;20216;-68
2023/02/18 00:58:23;;;;;;;18.10;3.40;;;;;;;6.70;100.00;101688.88;4991127;28;20192;-70
2023/02/18 01:00:49;;;;;;;17.23;2.93;;;;;;;6.65;100.00;101686.13;4994264;28;20631;-69
2023/02/18 01:03:15;;;;;;;17.57;3.30;;;;;;;6.62;100.00;101690.16;4985448;28;20639;-69
2023/02/18 01:05:41;;;;;;;24.57;3.20;;;;;;;6.60;100.00;101692.66;4987459;28;20194;-68
2023/02/18 01:08:08;;;;;;;18.43;2.83;;;;;;;6.56;100.00;101703.47;4992105;28;20188;-67
2023/02/18 01:10:36;;;;;;;16.10;3.40;;;;;;;6.56;100.00;101702.59;4993633;28;20243;-69
2023/02/18 01:13:03;;;;;;;19.93;3.70;;;;;;;6.58;100.00;101701.88;4989675;28;20294;-67
2023/02/18 01:15:30;;;;;;;15.80;3.43;;;;;;;6.56;100.00;101697.50;4989534;28;20644;-68
2023/02/18 01:17:55;;;;;;;20.57;3.47;;;;;;;6.54;100.00;101699.97;4992918;28;20199;-68
2023/02/18 01:20:21;;;;;;;23.10;3.87;;;;;;;6.54;100.00;101699.09;4980777;28;20215;-70
2023/02/18 01:22:47;;;;;;;17.37;3.20;;;;;;;6.51;100.00;101698.94;4994291;28;20187;-70
2023/02/18 01:25:12;;;;;;;28.33;3.47;;;;;;;6.49;100.00;101696.31;4996314;28;20275;-69
2023/02/18 01:27:39;;;;;;;19.17;4.00;;;;;;;6.47;100.00;101691.97;4991843;28;20248;-70
2023/02/18 01:30:07;;;;;;;16.17;3.37;;;;;;;6.41;100.00;101700.16;4992494;28;20212;-69
2023/02/18 01:32:33;;;;;;;17.27;3.33;;;;;;;6.38;100.00;101701.69;4994049;28;20564;-69
2023/02/18 01:35:03;;;;;;;15.00;3.20;;;;;;;6.33;100.00;101698.03;4992989;28;20208;-66
2023/02/18 01:37:28;;;;;;;15.13;3.47;;;;;;;6.32;100.00;101699.72;4987751;28;20223;-69
2023/02/18 01:39:53;;;;;;;15.37;3.43;;;;;;;6.31;100.00;101694.56;4995406;28;20293;-68
2023/02/18 01:42:21;;;;;;;13.37;2.47;;;;;;;6.32;100.00;101692.09;4991908;28;20816;-69
2023/02/18 01:44:49;;;;;;;14.80;3.37;;;;;;;6.28;100.00;101697.81;4984327;28;20217;-67
2023/02/18 01:47:16;;;;;;;21.67;3.47;;;;;;;6.28;100.00;101690.19;4995324;28;20183;-68
2023/02/18 01:49:47;;;;;;;18.63;3.47;;;;;;;6.23;100.00;101681.47;4973810;28;20532;-69
2023/02/18 01:52:20;;;;;;;18.30;3.43;;;;;;;6.21;100.00;101680.50;4986857;28;20207;-68
2023/02/18 01:54:53;;;;;;;14.10;3.07;;;;;;;6.20;100.00;101677.88;5005934;28;20207;-69
2023/02/18 01:57:28;;;;;;;20.30;3.53;;;;;;;6.15;100.00;101679.31;4987173;28;20675;-68
2023/02/18 02:00:07;;;;;;;16.67;3.30;;;;;;;6.10;100.00;101681.66;4989169;28;20214;-69
2023/02/18 02:02:44;;;;;;;19.93;3.57;;;;;;;6.04;100.00;101676.22;4981572;28;20808;-69
2023/02/18 02:05:11;;;;;;;17.50;3.53;;;;;;;6.02;100.00;101672.75;4987351;28;20243;-69
2023/02/18 02:07:40;;;;;;;17.60;3.83;;;;;;;6.01;100.00;101668.47;4989648;28;20199;-69
2023/02/18 02:10:06;;;;;;;16.03;2.80;;;;;;;6.05;100.00;101669.50;4989171;28;20260;-68
2023/02/18 02:12:36;;;;;;;17.27;3.10;;;;;;;6.03;100.00;101677.03;4975404;28;20734;-69
2023/02/18 02:15:12;;;;;;;19.17;3.43;;;;;;;6.04;100.00;101671.16;4986883;28;20214;-66
2023/02/18 02:17:41;;;;;;;14.13;3.00;;;;;;;6.04;100.00;101671.16;4998171;28;20269;-70
2023/02/18 02:20:32;;;;;;;19.87;3.53;;;;;;;6.06;100.00;101673.78;4988242;28;20211;-69
2023/02/18 02:23:16;;;;;;;12.13;3.00;;;;;;;6.05;100.00;101672.91;4968220;28;20208;-68
2023/02/18 02:26:03;;;;;;;16.23;2.90;;;;;;;6.02;100.00;101672.75;4991793;28;20201;-68
2023/02/18 02:28:59;;;;;;;15.13;3.00;;;;;;;6.04;100.00;101671.16;4989438;28;20188;-70
2023/02/18 02:32:03;;;;;;;18.67;3.40;;;;;;;6.03;100.00;101666.00;4987806;28;20219;-70
2023/02/18 02:34:49;;;;;;;16.80;2.83;;;;;;;6.05;100.00;101666.94;4988702;28;20262;-68
2023/02/18 02:37:37;;;;;;;16.90;3.63;;;;;;;6.05;100.00;101662.75;4980432;28;20200;-69
2023/02/18 02:40:21;;;;;;;17.83;3.20;;;;;;;6.05;100.00;101657.66;4970706;28;20227;-69
2023/02/18 02:43:00;;;;;;;13.27;2.80;;;;;;;6.07;100.00;101656.06;4989510;28;20222;-69
2023/02/18 02:45:32;;;;;;;25.13;3.43;;;;;;;6.06;100.00;101654.31;4990554;28;20195;-69
2023/02/18 02:48:46;;;;;;;20.43;3.73;;;;;;;6.08;100.00;101652.72;4976474;28;20661;-70
2023/02/18 02:51:18;;;;;;;19.73;3.37;;;;;;;6.08;100.00;101649.31;4971773;28;20835;-66
2023/02/18 02:53:43;;;;;;;14.03;2.87;;;;;;;6.05;100.00;101647.50;4991132;28;20214;-66
2023/02/18 02:56:15;;;;;;;14.23;3.00;;;;;;;6.06;100.00;101641.63;4991794;28;20216;-69
2023/02/18 02:58:43;;;;;;;12.43;2.40;;;;;;;6.07;100.00;101632.28;4988587;28;20308;-69
2023/02/18 03:01:29;;;;;;;20.00;3.97;;;;;;;6.06;100.00;101635.63;4987223;28;20212;-69
2023/02/18 03:04:08;;;;;;;18.03;4.00;;;;;;;6.09;100.00;101639.22;4975848;28;20202;-68
2023/02/18 03:07:01;;;;;;;12.27;2.63;;;;;;;6.11;100.00;101632.53;4990395;28;20192;-69
2023/02/18 03:09:59;;;;;;;13.13;2.70;;;;;;;6.13;100.00;101632.63;4992441;28;20196;-69
2023/02/18 03:12:52;;;;;;;21.40;3.47;;;;;;;6.14;100.00;101639.44;4990437;28;20224;-69
2023/02/18 03:15:23;;;;;;;22.00;3.10;;;;;;;6.15;100.00;101636.97;4987537;28;20207;-67
2023/02/18 03:18:07;;;;;;;17.00;3.20;;;;;;;6.16;100.00;101628.56;4993449;28;20192;-67
2023/02/18 03:20:36;;;;;;;17.53;3.03;;;;;;;6.20;100.00;101637.19;4990634;28;20218;-68
2023/02/18 03:23:08;;;;;;;19.20;3.43;;;;;;;6.21;100.00;101631.34;4986762;28;20257;-69
2023/02/18 03:25:36;;;;;;;15.03;3.70;;;;;;;6.21;100.00;101626.25;5010254;28;20215;-68
2023/02/18 03:28:11;;;;;;;16.23;2.83;;;;;;;6.22;100.00;101623.75;4985838;28;20203;-68
2023/02/18 03:30:45;;;;;;;21.23;3.10;;;;;;;6.24;100.00;101629.81;4994087;28;20222;-70
2023/02/18 03:33:16;;;;;;;18.70;2.93;;;;;;;6.29;100.00;101637.66;4971058;28;20195;-68
2023/02/18 03:35:43;;;;;;;13.97;2.67;;;;;;;6.26;100.00;101629.91;4990002;28;20238;-69
2023/02/18 03:38:44;;;;;;;15.60;2.77;;;;;;;6.30;100.00;101626.66;4988023;28;20191;-70
2023/02/18 03:41:11;;;;;;;13.00;2.47;;;;;;;6.31;100.00;101625.91;4964414;28;20234;-69
2023/02/18 03:43:39;;;;;;;21.43;2.60;;;;;;;6.31;100.00;101628.44;4990549;28;20195;-68
2023/02/18 03:46:05;;;;;;;15.97;2.83;;;;;;;6.34;100.00;101629.44;4989765;28;20223;-69
2023/02/18 03:48:30;;;;;;;14.50;2.90;;;;;;;6.34;100.00;101626.91;4992039;28;20278;-69
2023/02/18 03:50:56;;;;;;;19.77;3.10;;;;;;;6.36;100.00;101630.38;4986234;28;20212;-66
2023/02/18 03:53:21;;;;;;;11.03;2.20;;;;;;;6.38;100.00;101640.63;4986873;28;20661;-68
2023/02/18 03:55:47;;;;;;;14.43;2.90;;;;;;;6.39;100.00;101638.19;4990223;28;20298;-69
2023/02/18 03:58:12;;;;;;;17.70;2.60;;;;;;;6.47;100.00;101641.09;4986232;28;20271;-67
2023/02/18 04:00:38;;;;;;;16.77;2.80;;;;;;;6.50;100.00;101651.41;4989647;28;20225;-69
2023/02/18 04:03:03;;;;;;;17.60;2.70;;;;;;;6.52;100.00;101652.34;4993318;28;20219;-69
2023/02/18 04:05:29;;;;;;;14.13;2.23;;;;;;;6.52;100.00;101649.81;4985700;28;20184;-68
2023/02/18 04:07:54;;;;;;;17.43;3.07;;;;;;;6.53;100.00;101649.00;4987632;28;20187;-69
2023/02/18 04:10:21;;;;;;;13.03;2.87;;;;;;;6.54;100.00;101646.53;4993057;28;20215;-69
2023/02/18 04:12:47;;;;;;;16.60;2.37;;;;;;;6.55;100.00;101639.78;4991298;28;20714;-68
2023/02/18 04:15:12;;;;;;;11.27;2.80;;;;;;;6.54;100.00;101640.59;4982495;28;20239;-69
2023/02/18 04:17:38;;;;;;;12.67;2.30;;;;;;;6.53;100.00;101644.81;4996559;28;20187;-68
2023/02/18 04:20:04;;;;;;;11.80;2.43;;;;;;;6.56;100.00;101639.00;4993097;28;20298;-67
2023/02/18 04:22:30;;;;;;;12.80;2.20;;;;;;;6.58;100.00;101640.81;4986220;28;20200;-68
2023/02/18 04:24:55;;;;;;;11.27;2.30;;;;;;;6.57;100.00;101630.53;4993417;28;20187;-68
2023/02/18 04:27:20;;;;;;;9.03;2.20;;;;;;;6.54;100.00;101626.19;4988575;28;20200;-70
2023/02/18 04:29:46;;;;;;;12.53;2.90;;;;;;;6.58;100.00;101622.16;4988085;28;20192;-67
2023/02/18 04:32:11;;;;;;;10.20;2.20;;;;;;;6.58;100.00;101617.91;4981760;28;20203;-66
2023/02/18 04:34:37;;;;;;;11.47;2.53;;;;;;;6.59;100.00;101606.91;4991580;28;20230;-69
2023/02/18 04:37:02;;;;;;;12.67;2.40;;;;;;;6.58;100.00;101597.56;4982131;28;20203;-69
2023/02/18 04:39:28;;;;;;;10.97;2.10;;;;;;;6.56;100.00;101608.47;4994094;28;20207;-68
2023/02/18 04:41:53;;;;;;;12.27;2.47;;;;;;;6.54;100.00;101605.00;4988666;28;20240;-69
2023/02/18 04:44:19;;;;;;;9.83;1.87;;;;;;;6.53;100.00;101590.50;4981968;28;20195;-69
2023/02/18 04:46:44;;;;;;;12.50;2.27;;;;;;;6.50;100.00;101598.84;4991016;28;20191;-68
2023/02/18 04:49:09;;;;;;;14.13;2.90;;;;;;;6.50;100.00;101593.75;4987955;28;20192;-69
2023/02/18 04:51:36;;;;;;;11.27;2.07;;;;;;;6.47;100.00;101592.75;4990633;28;20215;-68
2023/02/18 04:54:02;;;;;;;10.63;2.30;;;;;;;6.44;100.00;101590.94;4993854;28;20200;-68
2023/02/18 04:56:28;;;;;;;11.37;2.63;;;;;;;6.43;100.00;101594.28;4994575;28;20192;-68
2023/02/18 04:58:53;;;;;;;11.60;2.33;;;;;;;6.43;100.00;101590.88;4988723;28;20660;-67
2023/02/18 05:01:19;;;;;;;10.40;2.07;;;;;;;6.43;100.00;101584.13;4986497;28;20711;-68
2023/02/18 05:03:47;;;;;;;10.87;2.57;;;;;;;6.43;100.00;101585.78;4994141;28;20684;-68
2023/02/18 05:06:12;;;;;;;10.13;2.27;;;;;;;6.41;100.00;101578.06;4987098;28;20188;-69
2023/02/18 05:08:38;;;;;;;9.67;2.00;;;;;;;6.41;100.00;101580.63;4991065;28;20601;-68
2023/02/18 05:11:07;;;;;;;13.70;2.47;;;;;;;6.45;100.00;101581.66;4990041;28;20215;-68
2023/02/18 05:13:33;;;;;;;9.97;2.17;;;;;;;6.46;100.00;101584.28;4987197;28;20250;-69
2023/02/18 05:15:59;;;;;;;8.10;1.63;;;;;;;6.49;100.00;101589.47;4993956;28;20269;-68
2023/02/18 05:18:24;;;;;;;19.80;2.60;;;;;;;6.49;100.00;101589.47;4990299;28;20271;-68
2023/02/18 05:20:50;;;;;;;12.70;2.33;;;;;;;6.49;100.00;101581.00;4990312;28;20239;-69
2023/02/18 05:23:15;;;;;;;10.90;2.30;;;;;;;6.50;100.00;101568.31;4988635;28;20727;-68
2023/02/18 05:25:41;;;;;;;14.37;2.37;;;;;;;6.49;100.00;101561.50;4996517;28;20584;-68
2023/02/18 05:28:07;;;;;;;13.00;2.37;;;;;;;6.48;100.00;101558.88;4991843;28;20196;-69
2023/02/18 05:30:33;;;;;;;13.10;2.40;;;;;;;6.47;100.00;101552.06;4988649;28;20212;-68
2023/02/18 05:32:58;;;;;;;8.73;1.87;;;;;;;6.46;100.00;101558.84;4997394;28;20195;-68
2023/02/18 05:35:24;;;;;;;14.07;2.77;;;;;;;6.48;100.00;101556.34;4988523;28;20212;-68
2023/02/18 05:37:49;;;;;;;14.87;2.77;;;;;;;6.47;100.00;101550.41;4988785;28;20257;-68
2023/02/18 05:40:14;;;;;;;13.00;2.60;;;;;;;6.47;100.00;101552.06;4994502;28;20251;-69
2023/02/18 05:42:40;;;;;;;14.53;2.20;;;;;;;6.47;100.00;101552.06;4987978;28;20195;-69
2023/02/18 05:45:06;;;;;;;8.53;2.23;;;;;;;6.47;100.00;101552.06;4983044;28;20226;-69
2023/02/18 05:47:31;;;;;;;13.30;2.00;;;;;;;6.45;100.00;101551.97;4995014;28;20251;-68
2023/02/18 05:49:57;;;;;;;11.13;2.53;;;;;;;6.46;100.00;101551.22;4984589;28;20231;-69
2023/02/18 05:52:22;;;;;;;7.53;2.10;;;;;;;6.45;100.00;101551.97;4985512;28;20222;-67
2023/02/18 05:54:48;;;;;;;13.67;2.13;;;;;;;6.46;100.00;101540.16;4997773;28;20727;-69
2023/02/18 05:57:14;;;;;;;12.33;1.83;;;;;;;6.44;100.00;101535.00;4989403;28;20191;-69
2023/02/18 05:59:39;;;;;;;12.07;2.83;;;;;;;6.43;100.00;101533.25;4967788;28;20195;-68
2023/02/18 06:02:05;;;;;;;10.50;2.43;;;;;;;6.43;100.00;101537.44;4995648;28;20188;-69
2023/02/18 06:04:30;;;;;;;12.43;2.73;;;;;;;6.42;100.00;101533.16;4990199;28;20283;-69
2023/02/18 06:06:56;;;;;;;12.73;2.27;;;;;;;6.40;100.00;101538.19;4984819;28;20199;-69
2023/02/18 06:09:21;;;;;;;10.03;2.10;;;;;;;6.39;100.00;101535.56;4993745;28;20196;-68
2023/02/18 06:11:47;;;;;;;15.67;1.90;;;;;;;6.40;100.00;101540.72;4990966;28;20253;-67
2023/02/18 06:14:12;;;;;;;9.80;1.87;;;;;;;6.39;100.00;101535.56;4984002;28;20192;-68
2023/02/18 06:16:38;;;;;;;9.70;2.03;;;;;;;6.38;100.00;101529.63;4988814;28;20203;-68
2023/02/18 06:19:03;;;;;;;6.80;1.67;;;;;;;6.36;100.00;101515.09;4987864;28;20222;-67
2023/02/18 06:21:29;;;;;;;15.83;2.33;;;;;;;6.36;100.00;101512.56;4981846;28;20212;-69
2023/02/18 06:23:54;;;;;;;10.97;1.67;;;;;;;6.37;100.00;101530.44;4980547;28;20632;-69
2023/02/18 06:26:20;;;;;;;7.40;1.73;;;;;;;6.35;100.00;101523.53;4985517;28;20188;-68
2023/02/18 06:28:45;;;;;;;9.37;1.90;;;;;;;6.33;100.00;101510.75;4985022;28;20651;-69
2023/02/18 06:31:11;;;;;;;9.27;1.80;;;;;;;6.33;100.00;101498.03;4979482;28;20262;-69
2023/02/18 06:33:36;;;;;;;10.80;1.90;;;;;;;6.34;100.00;101498.88;4979425;28;20209;-68
2023/02/18 06:36:06;;;;;;;7.47;1.70;;;;;;;6.31;100.00;101493.66;4984237;28;20338;-68
2023/02/18 06:38:33;;;;;;;10.80;2.07;;;;;;;6.32;100.00;101485.22;4983297;28;20226;-68
2023/02/18 06:40:58;;;;;;;13.37;2.20;;;;;;;6.31;100.00;101475.88;4987406;28;20219;-68
2023/02/18 06:43:24;;;;;;;11.37;1.83;;;;;;;6.28;100.00;101468.97;4982099;28;20247;-67
2023/02/18 06:45:50;;;;;;;10.13;2.10;;;;;;;6.24;100.00;101466.19;4986694;28;20719;-69
2023/02/18 06:48:16;;;;;;;10.47;2.33;;;;;;;6.23;100.00;101467.88;4986827;28;20262;-67
2023/02/18 06:50:42;;;;;;;8.20;2.10;;;;;;;6.24;100.00;101471.28;4988966;28;20223;-68
2023/02/18 06:53:07;;;;;;;8.17;2.00;;;;;;;6.25;100.00;101451.03;4983321;28;20219;-68
2023/02/18 06:55:33;;;;;;;8.33;1.80;;;;;;;6.24;100.00;101450.94;4986893;28;20256;-69
2023/02/18 06:57:58;;;;;;;11.83;2.07;;;;;;;6.25;100.00;101442.50;4988038;28;20196;-69
2023/02/18 07:00:24;;;;;;;10.47;2.33;;;;;;;6.23;100.00;101442.47;4980033;28;20303;-68
2023/02/18 07:02:49;;;;;;;8.00;1.87;;;;;;;6.28;100.00;101435.91;4988284;28;20231;-68
2023/02/18 07:05:15;;;;;;;12.07;2.23;;;;;;;6.27;100.00;101434.16;4982361;28;20188;-68
2023/02/18 07:07:41;;;;;;;13.23;1.90;;;;;;;6.26;100.00;101423.94;4979524;28;20590;-69
2023/02/18 07:10:07;;;;;;;11.80;2.60;;;;;;;6.25;100.00;101420.50;4984818;28;20258;-68
2023/02/18 07:12:33;;;;;;;8.17;2.73;;;;;;;6.26;100.00;101412.06;4981149;28;20671;-68
2023/02/18 07:14:58;;;;;;;10.37;2.43;;;;;;;6.26;100.00;101416.31;4983259;28;20219;-68
2023/02/18 07:17:24;;;;;;;10.33;2.10;;;;;;;6.27;100.00;101406.19;4981818;28;20199;-68
2023/02/18 07:19:49;;;;;;;11.93;2.90;;;;;;;6.27;100.00;101403.63;4986449;28;20330;-68
2023/02/18 07:22:15;;;;;;;18.47;3.03;;;;;;;6.29;100.00;101391.00;4986713;28;20215;-68
2023/02/18 07:24:41;;;;;;;9.23;2.03;;;;;;;6.30;100.00;101387.66;4987676;28;20225;-68
2023/02/18 07:27:06;;;;;;;11.07;2.40;;;;;;;6.32;100.00;101381.84;4986560;28;20191;-68
2023/02/18 07:29:32;;;;;;;10.07;2.40;;;;;;;6.31;100.00;101376.69;4981714;28;20199;-69
2023/02/18 07:31:57;;;;;;;11.90;2.70;;;;;;;6.30;100.00;101374.94;4989647;28;20192;-69
2023/02/18 07:34:23;;;;;;;13.37;2.47;;;;;;;6.32;100.00;101375.88;4983980;28;20204;-68
2023/02/18 07:36:48;;;;;;;12.67;2.47;;;;;;;6.33;100.00;101365.78;4988982;28;20187;-70
2023/02/18 07:39:14;;;;;;;10.83;2.37;;;;;;;6.36;100.00;101363.38;4986789;28;20188;-68
2023/02/18 07:41:39;;;;;;;13.33;2.80;;;;;;;6.40;100.00;101370.31;4983232;28;20277;-69
2023/02/18 07:44:13;;;;;;;8.13;2.00;;;;;;;6.38;100.00;101358.34;4980630;28;20191;-70
2023/02/18 07:46:42;;;;;;;9.37;2.00;;;;;;;6.37;100.00;101342.25;4984956;28;20213;-69
2023/02/18 07:49:09;;;;;;;9.07;3.03;;;;;;;6.41;100.00;101331.38;4984662;28;20249;-69
2023/02/18 07:51:36;;;;;;;13.73;2.93;;;;;;;6.49;100.00;101313.94;4978720;28;20306;-69
2023/02/18 07:54:02;;;;;;;14.03;2.63;;;;;;;6.54;100.00;101310.75;4983107;28;20211;-70
2023/02/18 07:56:27;;;;;;;10.87;2.70;;;;;;;6.58;100.00;101310.09;4986202;28;20266;-69
2023/02/18 07:58:52;;;;;;;10.60;2.27;;;;;;;6.59;100.00;101308.41;4985283;28;20689;-67
2023/02/18 08:01:18;;;;;;;12.00;2.97;;;;;;;6.58;100.00;101305.00;4985415;28;20701;-68
2023/02/18 08:03:43;;;;;;;12.13;2.23;;;;;;;6.55;100.00;101309.97;4983651;28;20261;-70
2023/02/18 08:06:21;;;;;;;12.47;2.40;;;;;;;6.53;100.00;101305.59;4983130;28;20191;-67
2023/02/18 08:08:46;;;;;;;11.30;2.37;;;;;;;6.53;100.00;101296.31;4985272;28;21872;-69
2023/02/18 08:11:12;;;;;;;10.17;2.40;;;;;;;6.58;100.00;101274.47;4986247;28;20218;-68
2023/02/18 08:13:37;;;;;;;13.60;2.63;;;;;;;6.59;100.00;101275.34;4982818;28;20199;-68
2023/02/18 08:16:03;;;;;;;8.80;2.00;;;;;;;6.61;100.00;101273.72;4979948;28;20219;-70
2023/02/18 08:18:28;;;;;;;11.17;2.67;;;;;;;6.61;100.00;101258.47;4985729;28;20264;-70
2023/02/18 08:20:54;;;;;;;10.73;2.20;;;;;;;6.60;100.00;101247.44;4987762;28;20218;-68
2023/02/18 08:23:21;;;;;;;11.53;2.30;;;;;;;6.64;100.00;101245.88;4987318;28;20249;-68
2023/02/18 08:25:52;;;;;;;6.43;2.13;;;;;;;6.62;100.00;101245.81;4989791;28;20183;-69
2023/02/18 08:28:20;;;;;;;10.47;2.37;;;;;;;6.62;100.00;101250.91;4984529;28;20600;-67
2023/02/18 08:30:48;;;;;;;10.30;2.17;;;;;;;6.65;100.00;101250.16;4989662;28;20234;-68
2023/02/18 08:33:14;;;;;;;11.70;2.43;;;;;;;6.65;100.00;101243.41;4990754;28;20196;-70
2023/02/18 08:35:39;;;;;;;13.37;2.70;;;;;;;6.70;100.00;101243.56;4986871;28;20215;-69
2023/02/18 08:38:05;;;;;;;12.80;2.37;;;;;;;6.67;100.00;101257.03;4991031;28;20213;-70
2023/02/18 08:40:30;;;;;;;7.23;2.10;;;;;;;6.67;100.00;101248.53;4993323;28;20207;-68
2023/02/18 08:42:56;;;;;;;16.33;2.90;;;;;;;6.66;100.00;101232.41;4990078;28;20630;-69
2023/02/18 08:45:21;;;;;;;14.13;2.00;;;;;;;6.68;100.00;101219.75;4990880;28;20200;-69
2023/02/18 08:47:46;;;;;;;10.53;2.23;;;;;;;6.72;100.00;101216.53;4991482;28;20234;-68
2023/02/18 08:50:12;;;;;;;15.27;2.23;;;;;;;6.69;100.00;101203.69;4990165;28;20214;-69
2023/02/18 08:52:37;;;;;;;10.97;2.13;;;;;;;6.69;100.00;101209.66;4989389;28;20211;-69
2023/02/18 08:55:04;;;;;;;8.77;2.10;;;;;;;6.70;100.00;101205.41;4991059;28;20219;-68
2023/02/18 08:57:29;;;;;;;9.33;2.57;;;;;;;6.68;100.00;101204.50;4991205;28;20703;-68
2023/02/18 08:59:55;;;;;;;10.80;2.53;;;;;;;6.71;100.00;101191.88;4989302;28;20310;-69
2023/02/18 09:02:21;;;;;;;8.70;2.13;;;;;;;6.72;100.00;101191.94;4989094;28;20392;-69
2023/02/18 09:04:46;;;;;;;11.20;2.80;;;;;;;6.74;100.00;101177.63;4989031;28;20186;-70
2023/02/18 09:07:12;;;;;;;11.33;2.77;;;;;;;6.78;100.00;101187.09;4990332;28;20195;-68
2023/02/18 09:09:37;;;;;;;12.20;2.77;;;;;;;6.80;100.00;101174.44;4993060;28;20199;-69
2023/02/18 09:12:03;;;;;;;17.50;2.83;;;;;;;6.78;100.00;101170.97;4987914;28;20195;-69
2023/02/18 09:14:28;;;;;;;9.13;2.27;;;;;;;6.80;100.00;101164.25;4990138;28;20219;-68
2023/02/18 09:16:56;;;;;;;9.27;2.50;;;;;;;6.81;100.00;101156.69;4985088;28;20645;-69
2023/02/18 09:19:22;;;;;;;12.37;3.07;;;;;;;6.84;100.00;101138.13;4988044;28;20200;-68
2023/02/18 09:21:47;;;;;;;8.57;2.60;;;;;;;6.85;100.00;101138.19;4990184;28;20214;-68
2023/02/18 09:24:13;;;;;;;9.90;2.20;;;;;;;6.82;100.00;101117.69;4991992;28;20188;-68
2023/02/18 09:26:39;;;;;;;8.07;2.97;;;;;;;6.81;100.00;101110.88;4991212;28;20278;-69
2023/02/18 09:29:05;;;;;;;11.57;2.27;;;;;;;6.79;100.00;101099.78;4985491;28;20658;-68
2023/02/18 09:31:30;;;;;;;11.53;3.07;;;;;;;6.76;100.00;101101.31;4983989;28;20215;-69
2023/02/18 09:34:00;;;;;;;14.67;4.20;;;;;;;6.81;100.00;101099.84;4991045;28;20196;-67
2023/02/18 09:36:27;;;;;;;13.27;3.90;;;;;;;6.85;100.00;101094.03;4991831;28;20313;-67
2023/02/18 09:38:52;;;;;;;11.37;3.83;;;;;;;6.85;100.00;101096.59;4988906;28;20195;-69
2023/02/18 09:41:29;;;;;;;13.43;3.53;;;;;;;6.84;100.00;101077.03;4986437;28;20353;-69
2023/02/18 09:44:01;;;;;;;12.07;3.40;;;;;;;6.81;100.00;101098.16;4985362;28;20539;-69
2023/02/18 09:46:41;;;;;;;10.63;3.67;;;;;;;6.82;100.00;101056.63;4986999;28;20251;-68
2023/02/18 09:49:15;;;;;;;12.50;3.80;;;;;;;6.85;100.00;101071.13;4990199;28;20199;-69
2023/02/18 09:51:40;;;;;;;8.30;4.00;;;;;;;6.84;100.00;101059.22;4993850;28;20210;-69
2023/02/18 09:54:11;;;;;;;12.53;3.77;;;;;;;6.84;100.00;101064.31;4988485;28;20867;-68
2023/02/18 09:56:38;;;;;;;8.93;3.40;;;;;;;6.92;100.00;101043.47;4986812;28;20335;-68
2023/02/18 09:59:08;;;;;;;10.90;3.30;;;;;;;6.95;100.00;101046.09;4988965;28;20231;-69
2023/02/18 10:01:37;;;;;;;8.67;3.50;;;;;;;6.88;100.00;101068.72;4993417;28;20215;-70
2023/02/18 10:04:22;;;;;;;7.40;3.33;;;;;;;6.89;100.00;101048.41;4991191;28;20187;-68
2023/02/18 10:06:51;;;;;;;7.87;3.90;;;;;;;6.98;100.00;101015.66;4986227;28;20214;-69
2023/02/18 10:09:37;;;;;;;9.40;3.80;;;;;;;6.93;100.00;101026.47;4990245;28;20199;-70
2023/02/18 10:12:22;;;;;;;10.00;4.50;;;;;;;6.91;100.00;101018.78;4990085;28;20214;-69
2023/02/18 10:14:57;;;;;;;11.23;4.10;;;;;;;6.96;100.00;101016.44;4985205;28;20298;-69
2023/02/18 10:17:25;;;;;;;11.37;3.23;;;;;;;7.04;100.00;100989.59;4990705;28;20766;-71
2023/02/18 10:19:53;;;;;;;8.90;3.70;;;;;;;7.02;100.00;100989.53;4987666;28;20283;-69
2023/02/18 10:22:20;;;;;;;7.37;3.80;;;;;;;7.07;100.00;100977.81;4984910;28;20561;-68
2023/02/18 10:24:51;;;;;;;10.00;4.23;;;;;;;7.08;100.00;100979.53;4985557;28;20692;-68
2023/02/18 10:27:27;;;;;;;12.07;5.03;;;;;;;7.12;100.00;100990.69;4990293;28;20232;-69
2023/02/18 10:29:55;;;;;;;9.40;4.97;;;;;;;7.13;100.00;100987.31;4987637;28;20219;-68
2023/02/18 10:32:20;;;;;;;10.30;3.73;;;;;;;7.15;100.00;100990.81;4992092;28;20668;-69
2023/02/18 10:35:15;;;;;;;6.83;3.77;;;;;;;7.19;100.00;100985.00;4990972;28;20213;-68
2023/02/18 10:37:40;;;;;;;9.33;4.37;;;;;;;7.26;100.00;100979.31;4991115;28;20196;-67
2023/02/18 10:40:43;;;;;;;7.07;4.10;;;;;;;7.31;100.00;100978.66;4989250;28;20265;-69
2023/02/18 10:43:14;;;;;;;9.50;4.03;;;;;;;7.38;100.00;100975.50;4988439;28;20205;-70
2023/02/18 10:46:06;;;;;;;12.20;4.40;;;;;;;7.43;100.00;100962.94;4989381;28;20277;-69
2023/02/18 10:48:40;;;;;;;5.63;3.27;;;;;;;7.46;100.00;100960.50;4992239;28;20196;-69
2023/02/18 10:51:21;;;;;;;6.70;3.30;;;;;;;7.46;100.00;100952.84;4989148;28;20250;-68
2023/02/18 10:53:49;;;;;;;7.67;3.77;;;;;;;7.46;100.00;100945.22;4990727;28;20222;-68
2023/02/18 10:56:46;;;;;;;7.63;3.90;;;;;;;7.49;100.00;100937.66;4990261;28;20247;-68
2023/02/18 10:59:32;;;;;;;7.17;3.90;;;;;;;7.54;100.00;100925.91;4988392;28;20200;-68
2023/02/18 11:02:01;;;;;;;6.87;4.33;;;;;;;7.57;100.00;100921.81;4970440;28;20228;-69
2023/02/18 11:04:38;;;;;;;7.13;4.60;;;;;;;7.64;100.00;100920.34;4992839;28;20203;-68
2023/02/18 11:07:06;;;;;;;5.70;4.20;;;;;;;7.68;100.00;100910.28;4987154;28;20202;-69
2023/02/18 11:09:47;;;;;;;8.70;4.50;;;;;;;7.73;100.00;100906.19;4989065;28;20203;-68
2023/02/18 11:12:49;;;;;;;7.87;4.20;;;;;;;7.80;100.00;100897.06;4985755;28;20195;-70
2023/02/18 11:15:22;;;;;;;8.00;3.93;;;;;;;7.91;100.00;100890.59;4990647;28;20214;-69
2023/02/18 11:17:52;;;;;;;8.90;5.13;;;;;;;8.02;100.00;100891.78;4991073;28;20212;-69
2023/02/18 11:20:33;;;;;;;8.33;5.27;;;;;;;8.15;100.00;100879.44;4992395;28;20293;-68
2023/02/18 11:23:05;;;;;;;7.23;4.70;;;;;;;8.39;100.00;100877.63;4984972;28;20199;-69
2023/02/18 11:25:36;;;;;;;6.10;3.90;;;;;;;8.81;100.00;100870.28;4986445;28;20185;-68
2023/02/18 11:28:16;;;;;;;5.77;3.93;;;;;;;8.98;100.00;100863.94;4985808;28;20211;-70
2023/02/18 11:30:45;;;;;;;3.80;3.27;;;;;;;9.23;100.00;100851.84;4990548;28;20699;-69